Time;durP1;ratioP1;P1;durP2;ratioP2;P2;SDS_P1;SDS_P2;PMS_P1;PMS_P2;Temp;Humidity;BMP_temperature;BMP_pressure;BME280_temperature;BME280_humidity;BME280_pressure;Samples;Min_cycle;Max_cycle;Signal;HPM_P1;HPM_P2
2022/11/03 00:00:04;;;;;;;8.90;1.80;;;;;;;8.75;74.66;101132.12;103676;1277;60376;-76
2022/11/03 00:02:37;;;;;;;7.10;1.60;;;;;;;8.74;74.40;101131.35;103702;1310;59692;-78
2022/11/03 00:06:03;;;;;;;7.60;1.60;;;;;;;8.73;74.38;101128.29;102970;1307;72557;-78
2022/11/03 00:07:51;;;;;;;6.00;1.60;;;;;;;8.71;74.44;101126.77;103738;1302;68903;-78
2022/11/03 00:10:17;;;;;;;7.30;1.50;;;;;;;8.67;74.71;101124.84;104008;1302;59111;-78
2022/11/03 00:12:46;;;;;;;7.00;1.70;;;;;;;8.64;74.36;101125.49;103567;1312;61813;-78
2022/11/03 00:15:13;;;;;;;5.50;1.60;;;;;;;8.61;74.42;101121.93;103460;1297;58012;-77
2022/11/03 00:17:40;;;;;;;6.50;1.70;;;;;;;8.56;75.07;101111.27;104390;1303;72094;-78
2022/11/03 00:20:10;;;;;;;7.00;1.80;;;;;;;8.57;74.71;101109.94;103492;1304;69773;-76
2022/11/03 00:22:36;;;;;;;4.90;1.30;;;;;;;8.56;75.32;101108.78;103264;1307;71671;-76
2022/11/03 00:25:06;;;;;;;6.20;1.50;;;;;;;8.57;75.61;101106.02;102771;1293;62213;-77
2022/11/03 00:27:34;;;;;;;7.60;1.60;;;;;;;8.59;75.71;101108.91;103647;1295;58827;-78
2022/11/03 00:30:00;;;;;;;6.30;1.20;;;;;;;8.61;75.65;101107.64;103436;1295;59703;-77
2022/11/03 00:32:26;;;;;;;4.50;1.60;;;;;;;8.63;76.06;101102.54;104047;1303;59235;-79
2022/11/03 00:34:53;;;;;;;6.20;1.50;;;;;;;8.66;75.93;101105.52;103791;1301;59330;-78
2022/11/03 00:37:19;;;;;;;8.20;1.70;;;;;;;8.69;75.66;101102.90;103676;1300;58369;-78
2022/11/03 00:39:46;;;;;;;7.60;1.60;;;;;;;8.70;75.77;101101.13;103916;1309;59169;-78
2022/11/03 00:42:12;;;;;;;6.40;1.60;;;;;;;8.69;75.85;101100.96;103458;1303;59786;-77
2022/11/03 00:44:42;;;;;;;7.60;1.70;;;;;;;8.71;75.82;101105.77;103379;1310;59204;-77
2022/11/03 00:47:11;;;;;;;7.30;1.60;;;;;;;8.71;75.59;101100.41;103316;1303;72594;-78
2022/11/03 00:49:48;;;;;;;6.60;1.50;;;;;;;8.72;75.77;101098.17;103085;1300;62222;-78
2022/11/03 00:52:20;;;;;;;6.30;1.60;;;;;;;8.72;76.11;101096.82;103622;1310;60125;-78
2022/11/03 00:54:54;;;;;;;6.20;1.60;;;;;;;8.73;76.02;101093.95;102742;1298;72927;-77
2022/11/03 00:57:21;;;;;;;6.00;1.30;;;;;;;8.72;75.73;101090.79;103333;1284;70205;-77
2022/11/03 00:59:47;;;;;;;7.40;1.70;;;;;;;8.71;75.64;101084.37;103746;1294;59405;-77
2022/11/03 01:02:16;;;;;;;6.70;1.40;;;;;;;8.71;76.20;101085.32;102935;1312;59781;-77
2022/11/03 01:07:28;;;;;;;7.80;2.00;;;;;;;8.70;76.28;101089.62;103126;1312;72783;-77
2022/11/03 01:09:55;;;;;;;6.30;1.60;;;;;;;8.69;76.47;101085.79;103270;1304;69922;-77
2022/11/03 01:12:22;;;;;;;10.10;1.60;;;;;;;8.69;76.19;101082.27;103959;1271;71441;-77
2022/11/03 01:14:51;;;;;;;4.50;1.60;;;;;;;8.69;76.37;101083.40;103388;1297;60260;-77
2022/11/03 01:17:23;;;;;;;7.80;1.50;;;;;;;8.68;76.40;101080.28;103845;1304;59674;-78
2022/11/03 01:19:51;;;;;;;8.90;1.80;;;;;;;8.68;76.45;101079.71;103803;1304;70583;-77
2022/11/03 01:22:17;;;;;;;5.50;1.60;;;;;;;8.68;76.52;101078.86;103763;1305;69553;-77
2022/11/03 01:24:44;;;;;;;5.80;1.50;;;;;;;8.69;76.32;101068.76;104068;1289;71475;-77
2022/11/03 01:27:17;;;;;;;8.90;2.00;;;;;;;8.69;76.20;101062.51;104032;1297;60581;-77
2022/11/03 01:29:46;;;;;;;8.20;1.80;;;;;;;8.69;76.12;101055.02;104985;1299;58007;-78
2022/11/03 01:32:13;;;;;;;6.60;1.70;;;;;;;8.68;76.43;101051.85;103764;1307;72885;-77
2022/11/03 01:34:40;;;;;;;5.90;1.50;;;;;;;8.69;76.28;101051.23;104378;1302;70355;-78
2022/11/03 01:37:06;;;;;;;8.20;2.20;;;;;;;8.71;76.47;101048.07;104728;1298;59622;-78
2022/11/03 01:39:33;;;;;;;8.40;1.70;;;;;;;8.72;76.58;101040.41;103996;1297;59897;-77
2022/11/03 01:42:00;;;;;;;7.80;2.20;;;;;;;8.73;76.28;101036.09;103600;1297;60178;-77
2022/11/03 01:44:28;;;;;;;7.10;1.50;;;;;;;8.75;76.49;101029.88;103673;1298;72311;-76
2022/11/03 01:47:13;;;;;;;9.20;2.00;;;;;;;8.77;76.40;101025.30;104564;1301;70880;-78
2022/11/03 01:49:46;;;;;;;5.90;1.30;;;;;;;8.80;76.35;101022.31;104137;1301;72273;-76
2022/11/03 01:52:32;;;;;;;7.90;1.70;;;;;;;8.84;76.74;101017.86;103626;1303;61856;-76
2022/11/03 01:55:03;;;;;;;7.10;1.70;;;;;;;8.88;76.47;101010.76;104212;1298;59671;-77
2022/11/03 01:57:36;;;;;;;9.20;1.50;;;;;;;8.91;76.38;101012.39;104674;1278;71734;-76
2022/11/03 02:00:05;;;;;;;6.30;1.60;;;;;;;8.92;76.38;101007.27;104156;1289;70170;-76
2022/11/03 02:02:31;;;;;;;6.20;1.60;;;;;;;8.93;76.15;101002.48;103748;1289;71633;-76
2022/11/03 02:05:01;;;;;;;7.60;1.60;;;;;;;8.92;76.16;100993.39;104520;1294;59637;-76
2022/11/03 02:07:44;;;;;;;9.00;2.00;;;;;;;8.89;76.21;100990.83;105097;1286;58753;-78
2022/11/03 02:10:11;;;;;;;7.60;2.30;;;;;;;8.85;76.19;100988.82;103765;1302;73637;-78
2022/11/03 02:12:38;;;;;;;6.40;2.10;;;;;;;8.80;76.59;100991.09;104093;1286;71185;-76
2022/11/03 02:15:08;;;;;;;8.70;2.00;;;;;;;8.77;76.66;100997.52;104635;1295;73605;-78
2022/11/03 02:17:36;;;;;;;9.70;2.10;;;;;;;8.76;76.69;100999.73;104661;1294;61071;-77
2022/11/03 02:20:12;;;;;;;9.80;2.30;;;;;;;8.78;76.43;100996.88;103677;1298;59371;-77
2022/11/03 02:22:47;;;;;;;8.00;2.30;;;;;;;8.81;76.46;100990.68;104008;1296;70519;-77
2022/11/03 02:25:34;;;;;;;9.90;2.40;;;;;;;8.84;76.48;100991.36;104376;1301;71798;-76
2022/11/03 02:28:02;;;;;;;9.30;2.40;;;;;;;8.90;76.30;100988.15;105093;1287;72847;-77
2022/11/03 02:30:58;;;;;;;8.80;3.10;;;;;;;8.92;76.12;100986.63;103791;1303;60947;-77
2022/11/03 02:33:34;;;;;;;7.50;2.10;;;;;;;8.94;76.19;100984.40;104492;1294;59682;-77
2022/11/03 02:36:04;;;;;;;8.30;2.20;;;;;;;8.94;75.97;100978.65;104310;1295;71565;-79
2022/11/03 02:38:34;;;;;;;10.00;2.50;;;;;;;8.95;75.82;100980.37;103736;1294;69560;-78
2022/11/03 02:41:06;;;;;;;8.90;1.90;;;;;;;8.95;75.85;100973.86;103664;1301;71489;-79
2022/11/03 02:43:33;;;;;;;7.40;2.40;;;;;;;8.93;75.73;100968.92;104284;1290;60994;-77
2022/11/03 02:46:13;;;;;;;7.80;2.10;;;;;;;8.92;75.82;100968.12;103950;1301;59631;-76
2022/11/03 02:48:39;;;;;;;6.70;2.30;;;;;;;8.91;76.10;100967.55;103873;1287;71486;-78
2022/11/03 02:51:10;;;;;;;7.40;1.80;;;;;;;8.91;76.01;100961.96;103686;1301;70877;-77
2022/11/03 02:53:53;;;;;;;8.60;2.00;;;;;;;8.89;76.12;100956.16;103900;1300;71589;-77
2022/11/03 02:56:30;;;;;;;6.40;1.70;;;;;;;8.88;76.27;100952.55;104214;1287;60574;-77
2022/11/03 02:59:01;;;;;;;9.90;1.90;;;;;;;8.90;76.20;100953.02;105185;1293;60578;-77
2022/11/03 03:01:57;;;;;;;6.70;1.60;;;;;;;8.92;76.24;100949.63;104656;1297;71816;-77
2022/11/03 03:04:34;;;;;;;8.20;1.70;;;;;;;8.95;76.02;100946.96;104033;1294;71135;-77
2022/11/03 03:07:07;;;;;;;5.80;1.60;;;;;;;8.99;75.88;100944.70;103987;1298;72475;-76
2022/11/03 03:09:46;;;;;;;7.20;1.50;;;;;;;9.03;75.71;100945.52;103816;1297;60569;-77
2022/11/03 03:12:25;;;;;;;8.80;2.00;;;;;;;9.08;75.29;100943.08;104652;1283;58631;-76
2022/11/03 03:14:56;;;;;;;5.80;1.40;;;;;;;9.10;75.24;100940.72;104328;1300;73129;-77
2022/11/03 03:17:33;;;;;;;10.90;2.00;;;;;;;9.13;75.14;100934.48;103613;1305;70739;-76
2022/11/03 03:20:16;;;;;;;6.20;1.60;;;;;;;9.15;75.20;100929.45;103760;1300;72364;-77
2022/11/03 03:23:05;;;;;;;6.10;1.60;;;;;;;9.18;74.89;100923.91;104247;1294;60031;-77
2022/11/03 03:25:45;;;;;;;6.40;1.80;;;;;;;9.19;74.97;100920.00;104742;1289;62004;-76
2022/11/03 03:28:18;;;;;;;6.30;1.70;;;;;;;9.20;74.92;100919.77;104279;1292;73796;-76
2022/11/03 03:30:47;;;;;;;7.50;1.60;;;;;;;9.20;75.06;100920.83;104679;1295;70173;-77
2022/11/03 03:33:15;;;;;;;7.30;1.70;;;;;;;9.19;74.89;100919.87;104253;1288;72875;-76
2022/11/03 03:35:47;;;;;;;6.80;1.60;;;;;;;9.18;74.88;100917.70;104715;1288;60586;-76
2022/11/03 03:38:17;;;;;;;7.30;1.60;;;;;;;9.17;74.79;100917.59;104106;1301;60386;-76
2022/11/03 03:40:49;;;;;;;4.10;1.40;;;;;;;9.15;74.88;100914.45;104759;1303;72687;-77
2022/11/03 03:43:18;;;;;;;7.90;2.00;;;;;;;9.12;74.74;100913.70;104561;1288;69576;-77
2022/11/03 03:45:48;;;;;;;6.70;2.00;;;;;;;9.09;74.87;100915.80;104337;1294;70189;-77
2022/11/03 03:48:14;;;;;;;7.90;1.90;;;;;;;9.07;74.58;100912.80;104649;1294;64063;-77
2022/11/03 03:50:43;;;;;;;9.40;1.70;;;;;;;9.04;74.66;100906.22;104141;1295;60388;-76
2022/11/03 03:53:12;;;;;;;6.50;1.60;;;;;;;9.00;74.69;100899.95;104125;1295;74266;-77
2022/11/03 03:55:42;;;;;;;6.80;1.50;;;;;;;8.93;74.87;100897.30;104033;1298;69909;-77
2022/11/03 03:58:12;;;;;;;5.70;1.60;;;;;;;8.84;75.31;100895.40;104559;1296;71338;-77
2022/11/03 04:00:42;;;;;;;7.30;1.60;;;;;;;8.76;75.71;100886.55;104445;1300;59987;-78
2022/11/03 04:03:20;;;;;;;5.90;1.60;;;;;;;8.70;75.91;100880.31;104929;1284;58797;-78
2022/11/03 04:05:47;;;;;;;5.00;1.50;;;;;;;8.64;75.94;100878.80;104601;1297;74466;-77
2022/11/03 04:08:15;;;;;;;8.90;1.80;;;;;;;8.58;76.53;100880.67;105400;1283;73085;-77
2022/11/03 04:22:15;;;;;;;7.60;2.00;;;;;;;8.38;77.56;100855.66;104378;1290;71029;-77
2022/11/03 04:24:51;;;;;;;6.60;1.60;;;;;;;8.38;77.55;100854.11;104244;1288;71723;-78
2022/11/03 04:27:17;;;;;;;6.30;1.50;;;;;;;8.37;77.66;100852.91;104809;1297;60714;-76
2022/11/03 04:29:45;;;;;;;5.40;1.50;;;;;;;8.38;77.41;100846.84;104340;1299;59249;-77
2022/11/03 04:32:16;;;;;;;8.10;1.80;;;;;;;8.39;77.75;100846.98;104468;1288;73650;-77
2022/11/03 04:34:47;;;;;;;6.60;1.50;;;;;;;8.39;77.76;100850.17;105408;1291;69777;-77
2022/11/03 04:37:14;;;;;;;8.00;1.80;;;;;;;8.39;78.02;100847.47;104159;1291;71272;-77
2022/11/03 04:39:41;;;;;;;5.80;1.60;;;;;;;8.41;77.71;100845.78;104375;1300;61043;-77
2022/11/03 04:42:18;;;;;;;7.80;1.80;;;;;;;8.41;77.88;100843.08;104236;1286;60589;-77
2022/11/03 04:44:46;;;;;;;5.90;1.50;;;;;;;8.42;78.09;100842.33;104393;1301;73217;-76
2022/11/03 04:47:19;;;;;;;7.40;1.90;;;;;;;8.42;78.05;100833.14;103746;1285;70200;-78
2022/11/03 04:49:52;;;;;;;7.00;1.90;;;;;;;8.43;78.32;100835.01;103953;1291;74584;-78
2022/11/03 04:52:23;;;;;;;8.40;1.90;;;;;;;8.45;78.00;100835.60;103989;1294;59988;-78
2022/11/03 04:54:55;;;;;;;6.60;2.00;;;;;;;8.47;78.46;100829.08;104654;1291;60866;-78
2022/11/03 04:57:29;;;;;;;7.50;1.70;;;;;;;8.51;78.25;100824.82;104057;1297;72865;-77
2022/11/03 05:00:13;;;;;;;6.40;1.60;;;;;;;8.53;78.23;100824.55;104246;1296;72502;-77
2022/11/03 05:02:51;;;;;;;6.10;1.90;;;;;;;8.55;78.01;100823.42;103660;1300;72478;-79
2022/11/03 05:05:28;;;;;;;7.30;1.70;;;;;;;8.58;78.14;100819.17;103707;1297;60611;-80
2022/11/03 05:07:59;;;;;;;6.30;1.70;;;;;;;8.61;77.98;100817.10;103799;1291;60370;-78
2022/11/03 05:10:28;;;;;;;6.60;2.00;;;;;;;8.62;78.02;100815.76;104564;1294;60410;-78
2022/11/03 05:12:56;;;;;;;7.60;1.70;;;;;;;8.64;78.00;100813.41;104435;1291;70882;-78
2022/11/03 05:15:28;;;;;;;6.80;1.80;;;;;;;8.65;78.13;100813.35;104422;1295;72046;-79
2022/11/03 05:17:57;;;;;;;5.90;1.60;;;;;;;8.66;78.05;100809.98;105054;1289;59833;-78
2022/11/03 05:20:33;;;;;;;6.00;2.00;;;;;;;8.69;77.80;100800.91;104871;1299;60720;-77
2022/11/03 05:23:07;;;;;;;6.80;1.80;;;;;;;8.69;77.79;100795.98;104690;1299;73465;-77
2022/11/03 05:25:42;;;;;;;6.40;1.80;;;;;;;8.71;78.00;100797.81;104849;1294;70172;-77
2022/11/03 05:28:20;;;;;;;8.20;1.80;;;;;;;8.72;77.80;100798.96;104475;1291;71384;-76
2022/11/03 05:30:55;;;;;;;5.40;2.00;;;;;;;8.74;77.94;100795.07;104428;1292;60979;-77
2022/11/03 05:33:34;;;;;;;7.10;1.60;;;;;;;8.76;77.95;100792.09;103481;1297;60403;-78
2022/11/03 05:36:16;;;;;;;6.40;1.40;;;;;;;8.76;78.07;100788.94;103618;1294;73118;-77
2022/11/03 05:38:53;;;;;;;7.80;1.90;;;;;;;8.76;78.00;100789.27;103700;1291;71019;-76
2022/11/03 05:41:26;;;;;;;8.10;1.70;;;;;;;8.76;77.92;100787.08;103571;1299;73593;-76
2022/11/03 05:43:57;;;;;;;8.60;1.90;;;;;;;8.77;77.95;100785.58;103859;1294;61041;-78
2022/11/03 05:46:30;;;;;;;8.80;1.70;;;;;;;8.76;78.02;100785.29;104329;1292;60404;-79
2022/11/03 05:49:01;;;;;;;7.40;2.20;;;;;;;8.77;78.08;100788.26;104536;1300;74047;-78
2022/11/03 05:51:33;;;;;;;5.70;2.00;;;;;;;8.76;77.80;100784.80;104546;1291;69782;-78
2022/11/03 05:54:03;;;;;;;7.40;2.40;;;;;;;8.76;77.98;100784.10;104364;1295;71121;-78
2022/11/03 05:56:32;;;;;;;7.90;2.40;;;;;;;8.75;78.16;100778.41;105075;1289;61545;-78
2022/11/03 05:59:00;;;;;;;7.80;2.70;;;;;;;8.75;78.29;100780.39;104155;1295;60599;-77
2022/11/03 06:01:27;;;;;;;6.80;2.20;;;;;;;8.74;78.17;100777.42;103407;1296;73937;-77
2022/11/03 06:04:20;;;;;;;9.50;3.40;;;;;;;8.72;78.69;100776.58;103692;1301;71804;-75
2022/11/03 06:07:22;;;;;;;8.00;3.20;;;;;;;8.72;78.54;100782.64;104186;1296;71408;-75
2022/11/03 06:10:00;;;;;;;5.90;2.60;;;;;;;8.71;78.90;100784.61;103109;1291;61344;-74
2022/11/03 06:12:30;;;;;;;8.80;3.20;;;;;;;8.70;79.31;100779.83;104006;1290;60404;-76
2022/11/03 06:15:20;;;;;;;7.40;2.70;;;;;;;8.68;78.99;100777.95;104209;1276;72905;-75
2022/11/03 06:17:48;;;;;;;8.00;3.30;;;;;;;8.66;79.31;100775.01;104532;1294;70454;-74
2022/11/03 06:20:20;;;;;;;9.80;3.40;;;;;;;8.63;79.42;100772.15;103318;1290;73561;-74
2022/11/03 06:22:48;;;;;;;5.80;2.30;;;;;;;8.63;79.67;100771.23;104119;1285;60524;-74
2022/11/03 06:25:30;;;;;;;8.80;2.40;;;;;;;8.62;80.05;100770.60;104074;1294;60336;-74
2022/11/03 06:28:06;;;;;;;6.10;2.40;;;;;;;8.63;80.01;100767.35;103616;1301;72844;-73
2022/11/03 06:30:41;;;;;;;8.80;2.70;;;;;;;8.63;80.07;100768.77;103466;1294;69684;-73
2022/11/03 06:33:34;;;;;;;8.00;2.40;;;;;;;8.62;80.05;100767.11;104098;1294;71567;-73
2022/11/03 06:36:36;;;;;;;7.60;2.20;;;;;;;8.62;80.47;100769.40;103277;1297;60491;-74
2022/11/03 06:39:16;;;;;;;6.70;1.90;;;;;;;8.61;80.56;100767.15;103170;1301;60415;-74
2022/11/03 06:41:53;;;;;;;6.90;2.10;;;;;;;8.61;80.69;100761.59;103299;1295;71630;-73
2022/11/03 06:44:29;;;;;;;34.70;21.40;;;;;;;8.62;80.78;100753.17;103935;1293;182425;-80
2022/11/03 06:47:00;;;;;;;11.50;5.90;;;;;;;8.64;80.72;100756.12;104438;1298;72428;-81
2022/11/03 06:49:29;;;;;;;4.70;1.50;;;;;;;8.67;80.56;100750.52;105574;1290;61366;-79
2022/11/03 06:52:00;;;;;;;7.40;1.70;;;;;;;8.71;80.10;100749.94;104124;1301;60754;-80
2022/11/03 06:54:27;;;;;;;7.20;1.60;;;;;;;8.74;80.32;100750.97;103096;1300;72397;-80
2022/11/03 06:56:53;;;;;;;7.10;1.70;;;;;;;8.77;80.19;100748.85;105125;1291;60327;-79
2022/11/03 06:59:20;;;;;;;5.30;1.80;;;;;;;8.80;79.61;100748.27;104536;1299;71206;-79
2022/11/03 07:01:53;;;;;;;9.00;2.20;;;;;;;8.84;79.70;100747.28;103627;1301;60696;-79
2022/11/03 07:04:22;;;;;;;7.00;1.80;;;;;;;8.87;79.46;100743.15;103486;1296;60479;-80
2022/11/03 07:06:49;;;;;;;8.20;2.00;;;;;;;8.89;79.31;100740.41;103458;1300;73661;-80
2022/11/03 07:09:22;;;;;;;4.30;1.60;;;;;;;8.92;79.03;100739.27;103544;1301;72255;-80
2022/11/03 07:11:56;;;;;;;9.80;2.20;;;;;;;8.92;79.34;100736.88;104259;1297;73011;-81
2022/11/03 07:14:32;;;;;;;7.40;1.80;;;;;;;8.93;79.23;100728.69;103903;1294;60878;-77
2022/11/03 07:17:01;;;;;;;6.70;2.00;;;;;;;8.95;79.24;100729.02;103225;1284;60838;-80
2022/11/03 07:19:44;;;;;;;8.80;2.00;;;;;;;8.98;79.35;100728.16;104814;1302;73395;-79
2022/11/03 07:22:13;;;;;;;7.70;2.30;;;;;;;9.03;79.13;100730.68;104414;1272;69664;-79
2022/11/03 07:24:44;;;;;;;7.20;1.70;;;;;;;9.07;79.20;100724.14;104961;1290;73185;-80
2022/11/03 07:27:24;;;;;;;7.00;1.80;;;;;;;9.12;79.28;100724.60;105109;1297;60450;-81
2022/11/03 07:29:56;;;;;;;8.00;2.00;;;;;;;9.16;78.96;100725.02;104268;1300;59335;-82
2022/11/03 07:32:30;;;;;;;7.70;2.10;;;;;;;9.23;78.73;100719.88;103481;1299;73346;-80
2022/11/03 07:35:15;;;;;;;7.30;2.00;;;;;;;9.30;78.82;100720.17;104512;1293;69540;-81
2022/11/03 07:37:47;;;;;;;6.90;2.10;;;;;;;9.38;78.60;100711.73;103030;1294;71622;-81
2022/11/03 07:40:24;;;;;;;9.60;2.10;;;;;;;9.46;78.12;100713.91;103087;1299;61217;-81
2022/11/03 07:42:56;;;;;;;6.20;1.60;;;;;;;9.54;78.11;100713.13;103057;1297;60380;-82
2022/11/03 07:45:41;;;;;;;11.60;2.00;;;;;;;9.61;78.17;100709.78;103163;1291;74133;-82
2022/11/03 07:48:21;;;;;;;8.00;1.90;;;;;;;9.68;77.79;100705.64;103287;1286;70751;-81
2022/11/03 07:51:00;;;;;;;7.60;1.80;;;;;;;9.76;77.75;100703.00;103011;1295;70731;-80
2022/11/03 07:53:40;;;;;;;6.10;1.60;;;;;;;9.84;77.58;100699.80;104023;1298;61285;-81
2022/11/03 07:56:21;;;;;;;7.40;1.80;;;;;;;9.91;77.43;100693.73;103021;1291;60483;-80
2022/11/03 07:58:58;;;;;;;4.70;1.60;;;;;;;10.00;77.30;100694.48;103399;1301;73551;-81
2022/11/03 08:01:29;;;;;;;8.50;1.80;;;;;;;10.08;77.18;100685.99;102899;1299;72195;-80
2022/11/03 08:04:00;;;;;;;7.90;2.20;;;;;;;10.16;76.87;100679.98;102978;1300;72610;-81
2022/11/03 08:06:27;;;;;;;7.30;1.90;;;;;;;10.23;76.84;100678.11;103118;1295;63287;-80
2022/11/03 08:08:54;;;;;;;7.50;1.90;;;;;;;10.29;76.53;100673.83;103084;1298;60520;-81
2022/11/03 08:11:22;;;;;;;6.60;2.20;;;;;;;10.36;76.48;100674.45;103732;1302;73923;-82
2022/11/03 08:13:55;;;;;;;5.50;1.90;;;;;;;10.45;76.32;100670.88;104876;1291;72172;-83
2022/11/03 08:16:21;;;;;;;5.80;1.80;;;;;;;10.55;76.07;100666.98;105588;1294;74787;-82
2022/11/03 08:18:48;;;;;;;4.90;1.90;;;;;;;10.64;75.84;100661.18;105702;1292;61439;-80
2022/11/03 08:21:16;;;;;;;7.10;1.80;;;;;;;10.71;75.34;100652.86;105715;1293;59984;-80
2022/11/03 08:23:42;;;;;;;4.70;1.50;;;;;;;10.80;74.98;100650.81;105688;1295;74900;-80
2022/11/03 08:26:13;;;;;;;5.80;1.60;;;;;;;10.90;74.61;100651.23;105085;1295;70783;-83
2022/11/03 08:28:40;;;;;;;6.20;1.60;;;;;;;10.97;74.36;100648.09;104420;1298;71732;-81
2022/11/03 08:31:07;;;;;;;6.80;2.20;;;;;;;11.06;74.26;100643.34;104145;1300;61341;-81
2022/11/03 08:33:39;;;;;;;6.90;1.90;;;;;;;11.16;74.10;100642.44;104605;1300;59975;-81
2022/11/03 08:36:07;;;;;;;6.50;1.80;;;;;;;11.25;73.97;100639.35;104864;1292;73506;-80
2022/11/03 08:38:34;;;;;;;7.50;1.90;;;;;;;11.33;73.56;100636.45;104278;1297;71815;-80
2022/11/03 08:41:02;;;;;;;8.50;1.60;;;;;;;11.37;73.26;100634.02;104111;1298;71284;-81
2022/11/03 08:43:29;;;;;;;7.40;2.10;;;;;;;11.43;73.42;100632.30;104397;1297;60354;-80
2022/11/03 08:45:56;;;;;;;5.40;1.70;;;;;;;11.50;73.05;100629.70;104414;1302;59680;-81
2022/11/03 08:48:35;;;;;;;6.40;1.90;;;;;;;11.61;73.06;100623.95;104197;1303;73120;-80
2022/11/03 08:51:02;;;;;;;9.00;1.70;;;;;;;11.71;72.78;100616.70;103999;1303;72073;-79
2022/11/03 08:53:29;;;;;;;5.80;1.90;;;;;;;11.81;72.48;100609.52;103890;1303;74613;-79
2022/11/03 08:55:55;;;;;;;5.70;1.60;;;;;;;11.88;72.21;100605.86;104021;1301;63186;-80
2022/11/03 08:58:22;;;;;;;5.10;1.40;;;;;;;11.94;72.21;100600.18;104278;1300;60599;-79
2022/11/03 09:00:49;;;;;;;6.50;1.60;;;;;;;12.00;71.95;100599.92;104285;1301;74976;-78
2022/11/03 09:03:15;;;;;;;6.10;1.60;;;;;;;12.07;71.50;100597.39;103839;1301;71439;-79
2022/11/03 09:05:42;;;;;;;6.80;2.10;;;;;;;12.13;71.33;100592.91;104355;1291;72274;-79
2022/11/03 09:08:09;;;;;;;6.70;2.10;;;;;;;12.18;71.36;100585.94;104193;1298;61887;-77
2022/11/03 09:10:56;;;;;;;7.00;1.60;;;;;;;12.24;71.14;100584.28;104208;1300;60483;-77
2022/11/03 09:13:22;;;;;;;6.20;1.80;;;;;;;12.32;71.24;100580.59;104241;1300;73478;-77
2022/11/03 09:15:49;;;;;;;7.50;1.70;;;;;;;12.39;71.05;100578.05;104055;1300;60314;-78
2022/11/03 09:18:16;;;;;;;5.90;1.50;;;;;;;12.48;71.02;100576.73;104826;1303;70665;-78
2022/11/03 09:20:43;;;;;;;7.60;1.80;;;;;;;12.59;70.64;100572.22;105521;1295;59806;-78
2022/11/03 09:23:09;;;;;;;6.20;1.50;;;;;;;12.71;70.65;100570.15;104177;1303;61573;-79
2022/11/03 09:25:37;;;;;;;6.20;1.80;;;;;;;12.76;70.24;100568.83;104649;1302;74141;-79
2022/11/03 09:28:04;;;;;;;5.50;1.50;;;;;;;12.85;70.12;100567.36;103933;1303;68829;-78
2022/11/03 09:30:31;;;;;;;6.40;1.50;;;;;;;12.93;69.98;100564.79;104091;1301;72736;-80
2022/11/03 09:32:58;;;;;;;6.70;1.60;;;;;;;13.00;69.68;100557.64;104500;1302;62470;-79
2022/11/03 09:35:24;;;;;;;8.30;1.80;;;;;;;13.08;69.30;100552.23;104291;1295;60474;-80
2022/11/03 09:37:51;;;;;;;6.10;1.60;;;;;;;13.22;69.47;100553.23;104238;1302;73173;-80
2022/11/03 09:40:18;;;;;;;5.90;2.00;;;;;;;13.35;68.90;100549.72;104382;1302;59446;-79
2022/11/03 09:42:45;;;;;;;5.60;1.30;;;;;;;13.46;68.75;100551.71;104376;1308;73215;-80
2022/11/03 09:45:12;;;;;;;6.00;1.60;;;;;;;13.51;67.92;100547.48;104410;1302;58279;-79
2022/11/03 09:47:41;;;;;;;6.90;1.80;;;;;;;13.60;67.76;100550.06;104577;1293;59714;-80
2022/11/03 09:50:18;;;;;;;4.80;1.60;;;;;;;13.69;67.24;100541.98;103798;1304;73626;-80
2022/11/03 09:52:47;;;;;;;6.90;1.40;;;;;;;13.82;66.93;100538.76;103099;1301;71294;-81
2022/11/03 09:55:22;;;;;;;6.70;1.90;;;;;;;14.00;66.71;100533.54;102925;1302;71344;-81
2022/11/03 09:57:52;;;;;;;5.60;1.40;;;;;;;14.11;66.11;100531.64;102934;1304;60510;-81
2022/11/03 10:00:20;;;;;;;7.40;1.60;;;;;;;14.19;66.00;100534.65;103024;1302;60957;-80
2022/11/03 10:02:48;;;;;;;4.00;1.30;;;;;;;14.25;65.45;100536.75;103124;1300;75068;-83
2022/11/03 10:05:21;;;;;;;6.00;1.40;;;;;;;14.39;65.74;100529.44;102707;1306;70845;-80
2022/11/03 10:07:49;;;;;;;6.40;1.80;;;;;;;14.47;65.41;100518.91;103016;1297;72737;-80
2022/11/03 10:10:19;;;;;;;4.60;1.20;;;;;;;14.54;65.03;100496.11;103471;1300;61776;-81
2022/11/03 10:12:48;;;;;;;4.80;1.70;;;;;;;14.50;64.64;100474.70;103611;1300;60570;-82
2022/11/03 10:15:16;;;;;;;5.60;1.60;;;;;;;14.46;64.75;100484.83;103507;1301;75338;-80
2022/11/03 10:17:44;;;;;;;6.10;1.50;;;;;;;14.44;64.83;100499.34;103272;1293;69095;-81
2022/11/03 10:20:14;;;;;;;7.20;1.60;;;;;;;14.44;65.24;100489.23;103389;1300;73607;-80
2022/11/03 10:22:43;;;;;;;6.10;1.60;;;;;;;14.36;64.82;100481.96;103191;1301;60468;-83
2022/11/03 10:25:34;;;;;;;5.70;1.40;;;;;;;14.33;65.08;100495.55;103546;1301;60946;-81
2022/11/03 10:28:17;;;;;;;6.20;1.60;;;;;;;14.30;65.30;100497.02;103413;1302;74468;-80
2022/11/03 10:30:54;;;;;;;6.40;1.70;;;;;;;14.26;65.22;100488.98;103396;1297;70566;-81
2022/11/03 10:34:00;;;;;;;5.10;1.40;;;;;;;14.21;65.34;100494.92;103509;1298;72870;-81
2022/11/03 10:36:30;;;;;;;6.70;1.60;;;;;;;14.20;65.69;100491.63;103266;1298;62939;-82
2022/11/03 10:39:23;;;;;;;6.90;1.60;;;;;;;14.20;66.02;100484.82;102933;1303;60476;-80
2022/11/03 10:41:57;;;;;;;7.50;1.80;;;;;;;14.27;65.89;100483.93;103220;1300;73636;-80
2022/11/03 10:44:28;;;;;;;5.00;1.50;;;;;;;14.31;65.62;100476.64;103108;1301;71070;-80
2022/11/03 10:47:01;;;;;;;5.40;1.70;;;;;;;14.31;65.72;100476.75;103412;1296;71872;-81
2022/11/03 10:49:34;;;;;;;4.20;1.30;;;;;;;14.30;65.46;100470.67;103120;1300;61901;-80
2022/11/03 10:52:20;;;;;;;5.00;1.60;;;;;;;14.24;65.19;100462.55;103021;1296;60316;-81
2022/11/03 10:54:47;;;;;;;5.90;1.60;;;;;;;14.22;65.31;100453.52;103038;1301;73346;-81
2022/11/03 10:57:14;;;;;;;5.10;1.20;;;;;;;14.21;65.34;100451.14;104662;1292;70830;-81
2022/11/03 10:59:43;;;;;;;6.60;1.70;;;;;;;14.15;65.34;100444.11;105448;1295;72359;-81
2022/11/03 11:02:23;;;;;;;6.20;1.50;;;;;;;14.19;65.49;100438.20;105362;1294;61291;-81
2022/11/03 11:05:01;;;;;;;6.20;2.20;;;;;;;14.20;65.38;100438.73;105413;1295;257242;-79
2022/11/03 11:07:33;;;;;;;7.80;2.10;;;;;;;14.21;65.39;100431.92;104977;1303;74644;-80
2022/11/03 11:10:16;;;;;;;9.20;1.80;;;;;;;14.26;65.33;100433.95;104231;1300;71163;-81
2022/11/03 11:13:22;;;;;;;5.70;1.50;;;;;;;14.26;65.17;100431.14;104336;1300;71468;-80
2022/11/03 11:15:50;;;;;;;6.70;1.80;;;;;;;14.28;65.29;100433.77;104055;1302;62411;-79
2022/11/03 11:18:28;;;;;;;6.70;1.90;;;;;;;14.26;65.25;100436.39;104350;1297;60486;-80
2022/11/03 11:21:00;;;;;;;5.90;1.70;;;;;;;14.25;65.23;100429.46;104194;1301;74507;-79
2022/11/03 11:23:26;;;;;;;8.60;2.10;;;;;;;14.30;65.60;100425.33;104176;1294;70190;-79
2022/11/03 11:26:08;;;;;;;9.90;1.90;;;;;;;14.36;65.44;100421.33;104354;1301;59395;-80
2022/11/03 11:28:41;;;;;;;6.90;2.20;;;;;;;14.44;65.16;100412.38;104329;1295;61706;-79
2022/11/03 11:31:26;;;;;;;7.80;1.70;;;;;;;14.57;65.45;100409.70;103925;1300;62133;-79
2022/11/03 11:34:22;;;;;;;6.10;1.80;;;;;;;14.72;64.97;100397.77;104064;1302;72073;-80
2022/11/03 11:36:55;;;;;;;8.10;1.90;;;;;;;14.81;64.18;100387.39;104103;1302;71394;-81
2022/11/03 11:39:27;;;;;;;5.10;1.50;;;;;;;14.89;64.02;100380.30;104390;1298;71238;-80
2022/11/03 11:42:03;;;;;;;7.10;1.60;;;;;;;14.98;63.64;100368.27;104607;1297;60902;-82
2022/11/03 11:44:39;;;;;;;5.20;1.60;;;;;;;15.05;63.11;100359.52;104191;1301;60372;-80
2022/11/03 11:47:22;;;;;;;5.10;1.50;;;;;;;15.09;62.85;100346.71;105654;1292;73002;-80
2022/11/03 11:50:15;;;;;;;5.10;1.70;;;;;;;15.19;63.09;100340.01;105090;1292;70495;-80
2022/11/03 11:52:44;;;;;;;6.40;2.00;;;;;;;15.12;62.47;100335.61;104567;1288;71941;-80
2022/11/03 11:55:23;;;;;;;5.00;1.70;;;;;;;15.09;62.75;100338.13;104613;1293;62135;-81
2022/11/03 11:57:51;;;;;;;4.50;1.40;;;;;;;15.05;62.83;100331.69;103129;1300;60717;-80
2022/11/03 12:00:24;;;;;;;5.10;1.60;;;;;;;14.99;62.83;100324.92;103099;1294;72411;-80